Aérodrome :
LOGIN :

S'inscrire | Disclaimer

   EN    FR    IT 

 










Légende :    VFR   VFR Marginal   IFR   IFR Intensif   IFR Très Intensif
Visi : 
Plafond : 
>= 8 km
>= 3000ft
5 à 8 km
1000 à 3000 ft
1500m à 5 km
500 à 1000 ft
800 à 1500m
200 à 500 ft
< 800m
< 200 ft
Symboles :   Orages  Brouillard  Fortes neiges  Fortes précipitations  Vent > 20 kt
SIGMETs :   Divers  Orages  Givrage  Turbulence  Onde Orograph.  Cendres Volcan.






- Altitude de l'aérodrome : 326 ft
- Code IATA : LCG


LECO - A Coruna

DERNIER METAR :
  • 251100Z 19003KT 110V220 CAVOK 09/07 Q1018 NOSIG

METARs EXPIRÉS :
  • 251030Z 17005KT 120V200 9999 VCFG NSC 06/05 Q1018 NOSIG
  • 251000Z 17005KT 9999 0800E BCFG NSC 04/04 Q1017 NOSIG
  • 250930Z 19004KT 9999 1000S R21/P2000 R03/0800D BCFG NSC 04/04 Q1017 NOSIG
  • 250900Z 18005KT 9999 1000E BCFG NSC 03/03 Q1017 NOSIG
  • 250830Z 18005KT 9999 0800S BCFG NSC 02/02 Q1017 TEMPO 0800 BCFG

TAF TAF LECO
Valide du 25 à 09h jusqu'au 26 à 09h UTC


250800Z 2509/2609 18003KT 3000 BR BCFG FEW001 TX13/2514Z TN02/2509Z
TEMPO 2509/2511 1400 BCFG
TEMPO 2509/2511 0800 BCFG
TEMPO 2509/2510 0350 FG BKN001
BECMG 2509/2512 9999 NSW
PROB30
TEMPO 2514/2516 32010KT



MET'MAP, la Météo Aéronautique d'un coup d'oeil ! - Copyright ORBIFLY Décembre 2007 - Disclaimer

ORBIFLY MET'MAP TEAM :

Programmation & Développement : Alexandra Zaïnal
Sur une idée originale de : Baudouin d'Aumeries
Assistance à la programmation : Marc-Olivier Méhu
Soutien technique & logistique : Manuel Goepfert

Contact : metmap@orbifly.com




SOURCES & CREDITS :

   NOAA